Dickinson, ND

11:05 AM MST on January 31, 2015 (GMT -0700)
Dickinson Municipal | Change Station
CLOSE
Current Station
Airport
Location: Dickinson,
Elevation: 2592 ft
Nearby Weather Stations

Elev 2592 ft 46.80 °N, 102.80 °W | Updated 9 minutes ago

Snow
Snow
17 °F
Feels Like 0 °F
N
21
Wind Variable Wind from ENE
Gusts 26 mph

Today
High -- | Low -- °F
--% Chance of Precip.
Yesterday
High -- | Low -- °F
Precip. -- in
7:17 AM 4:52 PM
Waxing Gibbous, 91% visible
Pressure 30.26 in
Visibility 1.8 miles
Clouds Overcast 900 ft
Windchill 0 °F
Dew Point 13 °F
Humidity 84%
Rainfall 0.00 in
Snow Depth Not available.
UV 1 out of 12
Pollen .10 out of 12
Air Quality Not available.
Flu Activity Not available.
METAR KDIK 311756Z AUTO 07018G23KT 1 3/4SM -SN BR OVC009 M08/M11 A3014 RMK AO2 SLP247 P0000 60000 I6009 T10831106 11056 21089 52011

More Conditions Fewer Conditions

Pressure 30.26 in
Visibility 1.8 miles
Clouds Overcast 900 ft
Windchill 0 °F
Dew Point 13 °F
Humidity 84%
Rainfall 0.00 in
Snow Depth Not available.
UV 1 out of 12
Pollen .10 out of 12
Air Quality Not available.
Flu Activity Not available.
METAR KDIK 311756Z AUTO 07018G23KT 1 3/4SM -SN BR OVC009 M08/M11 A3014 RMK AO2 SLP247 P0000 60000 I6009 T10831106 11056 21089 52011

More Conditions Fewer Conditions

10-Day Weather Forecast

Almanac

Astronomy

Jan. 31, 2015 Rise Set
Actual Time
Civil Twilight
Nautical Twilight
Astronomical Twilight
Moon
Length of Visible Light
Length of Day
Tomorrow will be .
, % of the Moon is Illuminated

Today's Extremes

State Highs State Lows

Community

WunderPhotos

Upload Photos

1,792,142 photos uploaded!

WunderBlogs® & News

Nearby

Air Quality

  Air Quality AQ Index Pollutant
Not available.

Snow Depth

Station Depth Elevation

Earthquake Activity

City Distance Mag. Time & Date
Minimum magnitude displayed is 2.5.

Coastal Water Temperatures

Place Temperature

Nearby Weather Stations